Andrews, IN

7:30 PM EST on January 31, 2015 (GMT -0500)
Chez Taylor | Change Station
CLOSE
Current Station
Personal Weather Station
Location: Huntington, IN
Elevation: 810 ft
Nearby Weather Stations
Active Advisory: Winter Storm Warning

Elev 810 ft 40.83 °N, 85.53 °W | Updated 46 seconds ago

Overcast
Overcast
34.3 °F
Feels Like 28 °F
N
7.0
Wind Variable Wind from SSW
Gusts 10.0 mph

Today
High -- | Low -- °F
--% Chance of Precip.
Yesterday
High -- | Low -- °F
Precip. -- in
7:53 AM 5:58 PM
Waxing Gibbous, 92% visible
Pressure 30.25 in
Visibility 10.0 miles
Clouds Few 3000 ft
Mostly Cloudy 3900 ft
Overcast 10000 ft
Windchill 28 °F
Dew Point 29 °F
Humidity 80%
Rainfall 0.00 in
Snow Depth Not available.
UV 0.0 out of 12
Pollen .10 out of 12
Air Quality Not available.
Flu Activity Not available.
METAR KFWA 312354Z 24006KT 10SM FEW030 BKN039 OVC100 01/M03 A3021 RMK AO2 SLP241 T00111028 10022 20011 53003

More Conditions Fewer Conditions

Pressure 30.25 in
Visibility 10.0 miles
Clouds Few 3000 ft
Mostly Cloudy 3900 ft
Overcast 10000 ft
Windchill 28 °F
Dew Point 29 °F
Humidity 80%
Rainfall 0.00 in
Snow Depth Not available.
UV 0.0 out of 12
Pollen .10 out of 12
Air Quality Not available.
Flu Activity Not available.
METAR KFWA 312354Z 24006KT 10SM FEW030 BKN039 OVC100 01/M03 A3021 RMK AO2 SLP241 T00111028 10022 20011 53003

More Conditions Fewer Conditions

10-Day Weather Forecast

Almanac

Astronomy

Jan. 31, 2015 Rise Set
Actual Time
Civil Twilight
Nautical Twilight
Astronomical Twilight
Moon
Length of Visible Light
Length of Day
Tomorrow will be .
, % of the Moon is Illuminated

Today's Extremes

State Highs State Lows

Community

WunderPhotos

Upload Photos

1,792,262 photos uploaded!

WunderBlogs® & News

Nearby

Air Quality

  Air Quality AQ Index Pollutant
Not available.

Snow Depth

Station Depth Elevation

Earthquake Activity

City Distance Mag. Time & Date
Minimum magnitude displayed is 2.5.

Coastal Water Temperatures

Place Temperature

Nearby Weather Stations